createdAt,value
2022-11-10T00:01:34.482Z,101717.28
2022-11-10T00:04:03.827Z,101718.59
2022-11-10T00:06:33.692Z,101719.91
2022-11-10T00:09:05.320Z,101717.28
2022-11-10T00:11:34.038Z,101715.75
2022-11-10T00:14:27.145Z,101728.09
2022-11-10T00:17:05.488Z,101731.19
2022-11-10T00:19:37.144Z,101730.41
2022-11-10T00:22:06.360Z,101727.66
2022-11-10T00:24:36.710Z,101731.69
2022-11-10T00:27:05.870Z,101742.81
2022-11-10T00:29:35.968Z,101740.25
2022-11-10T00:32:07.502Z,101728.22
2022-11-10T00:34:36.496Z,101741.06
2022-11-10T00:37:06.856Z,101749.47
2022-11-10T00:39:36.017Z,101749.63
2022-11-10T00:42:06.401Z,101745.91
2022-11-10T00:44:35.275Z,101757.16
2022-11-10T00:47:06.064Z,101762.03
2022-11-10T00:49:37.509Z,101777.50
2022-11-10T00:52:06.713Z,101780.56
2022-11-10T00:54:36.013Z,101794.56
2022-11-10T00:57:10.291Z,101792.88
2022-11-10T00:59:39.527Z,101792.94
2022-11-10T01:02:09.536Z,101787.28
2022-11-10T01:04:38.666Z,101787.41
2022-11-10T01:07:08.907Z,101789.31
2022-11-10T01:09:38.937Z,101793.72
2022-11-10T01:12:07.548Z,101802.28
2022-11-10T01:14:36.667Z,101788.31
2022-11-10T01:17:07.306Z,101784.53
2022-11-10T01:19:40.903Z,101794.16
2022-11-10T01:22:09.360Z,101787.34
2022-11-10T01:24:38.686Z,101788.97
2022-11-10T01:27:08.488Z,101792.16
2022-11-10T01:29:37.208Z,101793.00
2022-11-10T01:32:06.345Z,101783.88
2022-11-10T01:34:36.914Z,101793.16
2022-11-10T01:37:05.941Z,101788.69
2022-11-10T01:39:34.489Z,101797.75
2022-11-10T01:42:13.041Z,101790.94
2022-11-10T01:44:43.307Z,101803.31
2022-11-10T01:47:13.849Z,101809.28
2022-11-10T01:49:43.751Z,101813.13
2022-11-10T01:52:17.539Z,101823.63
2022-11-10T01:54:50.323Z,101828.59
2022-11-10T01:57:19.621Z,101828.72
2022-11-10T01:59:50.475Z,101831.47
2022-11-10T02:02:26.457Z,101836.41
2022-11-10T02:05:00.172Z,101839.97
2022-11-10T02:07:32.507Z,101829.81
2022-11-10T02:10:04.696Z,101831.66
2022-11-10T02:12:40.729Z,101845.25
2022-11-10T02:15:14.789Z,101844.03
2022-11-10T02:17:45.149Z,101841.19
2022-11-10T02:20:22.223Z,101853.13
2022-11-10T02:22:53.471Z,101845.69
2022-11-10T02:25:24.641Z,101842.44
2022-11-10T02:27:54.329Z,101847.97
2022-11-10T02:30:27.551Z,101833.38
2022-11-10T02:33:00.216Z,101838.88
2022-11-10T02:35:29.200Z,101849.16
2022-11-10T02:37:59.414Z,101853.81
2022-11-10T02:40:29.701Z,101864.28
2022-11-10T02:43:00.352Z,101860.25
2022-11-10T02:45:32.280Z,101865.88
2022-11-10T02:48:00.708Z,101867.09
2022-11-10T02:50:31.256Z,101881.84
2022-11-10T02:53:01.408Z,101886.19
2022-11-10T02:55:30.357Z,101885.69
2022-11-10T02:57:58.958Z,101879.69
2022-11-10T03:00:29.459Z,101886.91
2022-11-10T03:02:58.468Z,101898.28
2022-11-10T03:05:27.351Z,101888.31
2022-11-10T03:07:57.262Z,101886.69
2022-11-10T03:10:30.953Z,101893.53
2022-11-10T03:13:03.630Z,101886.03
2022-11-10T03:15:33.369Z,101890.16
2022-11-10T03:18:06.216Z,101897.09
2022-11-10T03:20:35.538Z,101898.09
2022-11-10T03:23:06.320Z,101904.47
2022-11-10T03:25:37.746Z,101912.25
2022-11-10T03:28:06.836Z,101924.59
2022-11-10T03:30:36.200Z,101919.19
2022-11-10T03:33:05.735Z,101918.97
2022-11-10T03:35:35.005Z,101920.91
2022-11-10T03:38:06.583Z,101917.16
2022-11-10T03:40:50.881Z,101918.63
2022-11-10T03:43:27.160Z,101937.00
2022-11-10T03:45:56.362Z,101947.59
2022-11-10T03:48:26.246Z,101940.44
2022-11-10T03:51:03.864Z,101944.97
2022-11-10T03:53:35.036Z,101953.66
2022-11-10T03:56:07.555Z,101961.97
2022-11-10T03:58:36.715Z,101963.56
2022-11-10T04:01:05.698Z,101958.47
2022-11-10T04:03:35.416Z,101963.69
2022-11-10T04:06:22.324Z,101975.63
2022-11-10T04:09:03.290Z,101967.38
2022-11-10T04:11:51.529Z,101993.06
2022-11-10T04:14:33.704Z,101987.56
2022-11-10T04:17:03.986Z,101994.41
2022-11-10T04:19:32.934Z,101985.88
2022-11-10T04:22:02.911Z,101992.16
2022-11-10T04:24:31.485Z,101994.25
2022-11-10T04:27:01.882Z,102006.69
2022-11-10T04:29:31.243Z,102005.00
2022-11-10T04:31:59.966Z,101999.16
2022-11-10T04:34:28.534Z,102011.28
2022-11-10T04:36:57.637Z,102011.28
2022-11-10T04:39:28.257Z,102010.19
2022-11-10T04:42:02.313Z,102013.75
2022-11-10T04:44:33.944Z,102020.16
2022-11-10T04:47:05.405Z,102027.91
2022-11-10T04:49:38.506Z,102025.16
2022-11-10T04:52:07.981Z,102027.03
2022-11-10T04:54:39.059Z,102041.44
2022-11-10T04:57:07.920Z,102036.69
2022-11-10T04:59:38.268Z,102040.50
2022-11-10T05:02:08.741Z,102039.63
2022-11-10T05:04:38.874Z,102036.69
2022-11-10T05:07:08.487Z,102043.31
2022-11-10T05:09:39.897Z,102038.75
2022-11-10T05:12:09.441Z,102041.63
2022-11-10T05:14:44.616Z,102046.00
2022-11-10T05:17:13.425Z,102051.38
2022-11-10T05:19:42.314Z,102056.28
2022-11-10T05:22:14.498Z,102059.94
2022-11-10T05:24:44.191Z,102042.50
2022-11-10T05:27:13.553Z,102044.38
2022-11-10T05:29:46.445Z,102041.84
2022-11-10T05:32:15.058Z,102047.19
2022-11-10T05:34:45.289Z,102063.28
2022-11-10T05:37:13.990Z,102069.41
2022-11-10T05:39:42.655Z,102059.44
2022-11-10T05:42:14.304Z,102062.69
2022-11-10T05:44:44.954Z,102052.59
2022-11-10T05:47:15.513Z,102063.44
2022-11-10T05:49:44.607Z,102062.81
2022-11-10T05:52:13.071Z,102075.59
2022-11-10T05:54:47.863Z,102071.91
2022-11-10T05:57:16.983Z,102076.41
2022-11-10T05:59:51.093Z,102073.78
2022-11-10T06:02:19.551Z,102077.97
2022-11-10T06:04:50.004Z,102083.97
2022-11-10T06:07:20.028Z,102094.72
2022-11-10T06:09:51.857Z,102095.69
2022-11-10T06:12:20.805Z,102107.84
2022-11-10T06:14:52.232Z,102118.47
2022-11-10T06:17:21.263Z,102126.25
2022-11-10T06:19:53.587Z,102132.78
2022-11-10T06:22:26.589Z,102126.75
2022-11-10T06:24:59.424Z,102127.03
2022-11-10T06:27:28.425Z,102139.38
2022-11-10T06:29:59.416Z,102138.34
2022-11-10T06:32:34.553Z,102137.34
2022-11-10T06:35:04.314Z,102128.19
2022-11-10T06:37:33.333Z,102139.25
2022-11-10T06:40:02.431Z,102134.84
2022-11-10T06:42:31.408Z,102145.66
2022-11-10T06:45:04.892Z,102147.94
2022-11-10T06:47:49.182Z,102147.06
2022-11-10T06:50:19.412Z,102166.50
2022-11-10T06:53:00.166Z,102162.00
2022-11-10T06:55:30.471Z,102180.63
2022-11-10T06:57:59.989Z,102188.44
2022-11-10T07:00:32.433Z,102186.50
2022-11-10T07:03:03.921Z,102184.78
2022-11-10T07:05:37.330Z,102187.78
2022-11-10T07:08:31.745Z,102179.69
2022-11-10T07:11:02.180Z,102180.53
2022-11-10T07:13:46.456Z,102180.28
2022-11-10T07:16:24.156Z,102185.44
2022-11-10T07:18:53.806Z,102190.56
2022-11-10T07:21:23.149Z,102189.38
2022-11-10T07:23:53.736Z,102186.66
2022-11-10T07:26:23.289Z,102184.47
2022-11-10T07:28:52.285Z,102179.56
2022-11-10T07:31:24.495Z,102184.09
2022-11-10T07:33:55.176Z,102197.28
2022-11-10T07:36:25.192Z,102202.94
2022-11-10T07:38:54.031Z,102196.13
2022-11-10T07:41:22.511Z,102204.25
2022-11-10T07:46:50.806Z,102196.84
2022-11-10T07:49:23.562Z,102204.28
2022-11-10T08:07:42.246Z,102216.00
2022-11-10T08:16:00.880Z,102229.13
2022-11-10T08:18:35.258Z,102233.22
2022-11-10T08:24:06.064Z,102243.38
2022-11-10T08:26:37.308Z,102232.78
2022-11-10T08:29:05.966Z,102241.31
2022-11-10T08:31:36.261Z,102256.00
2022-11-10T08:34:07.692Z,102242.28
2022-11-10T08:36:38.370Z,102234.25
2022-11-10T08:39:07.840Z,102235.38
2022-11-10T08:41:36.789Z,102237.59
2022-11-10T08:44:10.887Z,102254.13
2022-11-10T08:46:45.501Z,102261.63
2022-11-10T08:49:14.645Z,102270.91
2022-11-10T08:51:45.632Z,102273.66
2022-11-10T08:54:15.881Z,102270.53
2022-11-10T08:56:46.477Z,102264.69
2022-11-10T08:59:16.119Z,102259.69
2022-11-10T09:01:47.995Z,102259.53
2022-11-10T09:04:19.954Z,102261.81
2022-11-10T09:06:50.913Z,102267.78
2022-11-10T09:09:22.731Z,102266.44
2022-11-10T09:11:59.924Z,102274.69
2022-11-10T09:14:29.175Z,102270.59
2022-11-10T09:16:58.899Z,102269.88
2022-11-10T09:19:27.830Z,102264.59
2022-11-10T09:21:59.460Z,102263.59
2022-11-10T09:24:31.467Z,102258.38
2022-11-10T09:27:05.051Z,102268.66
2022-11-10T09:29:33.549Z,102264.56
2022-11-10T09:32:03.455Z,102277.41
2022-11-10T09:34:32.998Z,102274.66
2022-11-10T09:37:03.935Z,102274.31
2022-11-10T09:39:36.000Z,102286.31
2022-11-10T09:42:07.070Z,102287.69
2022-11-10T09:47:56.823Z,102279.34
2022-11-10T09:50:38.968Z,102274.63
2022-11-10T09:53:17.792Z,102298.75
2022-11-10T09:55:51.771Z,102287.13
2022-11-10T09:58:24.301Z,102286.19
2022-11-10T10:01:06.116Z,102295.38
2022-11-10T10:03:50.207Z,102310.59
2022-11-10T10:06:22.245Z,102308.25
2022-11-10T10:09:24.435Z,102330.72
2022-11-10T10:12:26.818Z,102325.94
2022-11-10T10:15:25.668Z,102321.13
2022-11-10T10:18:13.619Z,102306.00
2022-11-10T10:20:56.093Z,102314.53
2022-11-10T10:24:02.660Z,102321.16
2022-11-10T10:26:29.349Z,102308.97
2022-11-10T10:29:17.392Z,102312.47
2022-11-10T10:31:51.510Z,102311.09
2022-11-10T10:34:24.672Z,102305.13
2022-11-10T10:36:54.035Z,102310.19
2022-11-10T10:39:34.189Z,102303.97
2022-11-10T10:42:17.661Z,102316.06
2022-11-10T10:45:44.565Z,102306.78
2022-11-10T10:48:29.288Z,102310.88
2022-11-10T10:50:59.543Z,102309.28
2022-11-10T10:53:28.822Z,102317.47
2022-11-10T10:56:02.317Z,102328.50
2022-11-10T10:58:36.684Z,102326.00
2022-11-10T11:01:28.959Z,102323.69
2022-11-10T11:03:59.536Z,102328.25
2022-11-10T11:06:29.955Z,102331.88
2022-11-10T11:09:05.240Z,102333.84
2022-11-10T11:11:41.770Z,102345.56
2022-11-10T11:14:25.724Z,102361.41
2022-11-10T11:16:59.618Z,102372.03
2022-11-10T11:19:32.270Z,102379.25
2022-11-10T11:22:52.226Z,102376.47
2022-11-10T11:25:38.662Z,102378.72
2022-11-10T11:28:24.230Z,102383.88
2022-11-10T11:31:05.869Z,102374.66
2022-11-10T11:33:44.281Z,102378.72
2022-11-10T11:36:40.913Z,102387.34
2022-11-10T11:43:43.798Z,102392.13
2022-11-10T11:46:49.404Z,102406.16
2022-11-10T11:56:17.126Z,102391.81
2022-11-10T11:58:57.480Z,102388.03
2022-11-10T12:01:45.831Z,102395.06
2022-11-10T12:04:49.239Z,102394.66
2022-11-10T12:07:45.553Z,102401.59
2022-11-10T12:10:31.272Z,102402.50
2022-11-10T12:13:14.861Z,102391.34
2022-11-10T12:15:54.414Z,102398.81
2022-11-10T12:18:34.872Z,102408.91
2022-11-10T12:21:21.775Z,102405.63
2022-11-10T12:24:12.756Z,102404.91
2022-11-10T12:26:53.485Z,102402.59
2022-11-10T12:29:30.975Z,102409.97
2022-11-10T12:32:08.961Z,102411.84
2022-11-10T12:34:48.113Z,102413.72
2022-11-10T12:37:27.968Z,102399.13
2022-11-10T12:40:04.384Z,102408.13
2022-11-10T12:42:37.594Z,102405.78
2022-11-10T12:45:16.883Z,102398.38
2022-11-10T12:47:49.797Z,102407.16
2022-11-10T12:50:47.355Z,102425.56
2022-11-10T12:53:23.141Z,102419.63
2022-11-10T12:55:56.882Z,102422.13
2022-11-10T12:58:26.759Z,102416.00
2022-11-10T13:01:02.582Z,102409.03
2022-11-10T13:03:35.731Z,102414.84
2022-11-10T13:06:09.476Z,102412.63
2022-11-10T13:08:49.967Z,102401.63
2022-11-10T13:11:32.407Z,102407.06
2022-11-10T13:14:05.220Z,102403.28
2022-11-10T13:16:52.214Z,102398.09
2022-11-10T13:19:53.019Z,102408.75
2022-11-10T13:22:41.000Z,102419.63
2022-11-10T13:26:05.633Z,102413.41
2022-11-10T13:29:01.880Z,102411.25
2022-11-10T13:31:54.182Z,102409.22
2022-11-10T13:34:36.038Z,102413.38
2022-11-10T13:37:59.433Z,102412.16
2022-11-10T13:40:39.724Z,102411.97
2022-11-10T13:43:29.924Z,102411.00
2022-11-10T13:46:13.745Z,102405.63
2022-11-10T13:49:06.542Z,102418.03
2022-11-10T13:51:47.468Z,102429.03
2022-11-10T13:54:45.983Z,102428.13
2022-11-10T13:57:31.841Z,102419.31
2022-11-10T14:00:04.238Z,102426.88
2022-11-10T14:02:57.030Z,102427.94
2022-11-10T14:06:08.280Z,102434.41
2022-11-10T14:08:48.539Z,102445.59
2022-11-10T14:11:29.230Z,102439.75
2022-11-10T14:14:13.823Z,102454.03
2022-11-10T14:16:46.893Z,102440.69
2022-11-10T14:19:33.155Z,102442.28
2022-11-10T14:22:10.875Z,102447.81
2022-11-10T14:24:50.739Z,102459.94
2022-11-10T14:27:28.080Z,102460.81
2022-11-10T14:30:24.794Z,102457.03
2022-11-10T14:33:00.344Z,102471.84
2022-11-10T14:35:32.670Z,102489.88
2022-11-10T14:38:05.480Z,102498.56
2022-11-10T14:40:34.195Z,102497.13
2022-11-10T14:43:04.488Z,102472.81
2022-11-10T14:45:33.756Z,102473.28
2022-11-10T14:48:04.801Z,102465.53
2022-11-10T14:50:36.908Z,102461.78
2022-11-10T14:53:23.385Z,102463.97
2022-11-10T14:55:54.936Z,102466.13
2022-11-10T14:58:32.312Z,102465.34
2022-11-10T15:01:02.745Z,102470.00
2022-11-10T15:03:39.819Z,102466.28
2022-11-10T15:06:13.138Z,102473.03
2022-11-10T15:08:43.670Z,102477.00
2022-11-10T15:11:41.267Z,102481.91
2022-11-10T15:17:09.739Z,102486.59
2022-11-10T15:19:41.522Z,102495.72
2022-11-10T15:22:20.175Z,102489.72
2022-11-10T15:24:51.312Z,102493.50
2022-11-10T15:27:26.640Z,102480.41
2022-11-10T15:29:58.358Z,102503.63
2022-11-10T15:32:35.977Z,102502.56
2022-11-10T15:35:28.660Z,102505.25
2022-11-10T15:38:07.286Z,102516.91
2022-11-10T15:40:45.758Z,102517.66
2022-11-10T15:43:28.823Z,102519.50
2022-11-10T15:46:03.592Z,102519.34
2022-11-10T15:48:41.188Z,102499.06
2022-11-10T15:51:12.972Z,102503.09
2022-11-10T15:53:44.814Z,102521.53
2022-11-10T15:56:22.158Z,102530.31
2022-11-10T15:58:56.563Z,102533.78
2022-11-10T16:01:28.030Z,102528.00
2022-11-10T16:04:01.485Z,102523.47
2022-11-10T16:06:30.792Z,102526.59
2022-11-10T16:09:00.204Z,102527.69
2022-11-10T16:11:32.085Z,102530.84
2022-11-10T16:14:06.511Z,102534.97
2022-11-10T16:16:38.275Z,102549.28
2022-11-10T16:19:10.803Z,102561.06
2022-11-10T16:21:39.856Z,102556.16
2022-11-10T16:24:09.123Z,102565.47
2022-11-10T16:26:38.001Z,102558.31
2022-11-10T16:29:15.837Z,102565.22
2022-11-10T16:31:44.670Z,102559.50
2022-11-10T16:34:17.516Z,102568.56
2022-11-10T16:36:51.919Z,102563.09
2022-11-10T16:39:20.995Z,102568.28
2022-11-10T16:41:49.970Z,102570.03
2022-11-10T16:44:25.217Z,102575.69
2022-11-10T16:46:57.471Z,102580.72
2022-11-10T16:49:34.631Z,102582.72
2022-11-10T16:52:10.522Z,102578.56
2022-11-10T16:54:39.008Z,102569.91
2022-11-10T16:57:17.721Z,102575.78
2022-11-10T16:59:55.433Z,102567.56
2022-11-10T17:02:40.850Z,102573.69
2022-11-10T17:05:16.146Z,102550.13
2022-11-10T17:07:44.715Z,102561.84
2022-11-10T17:10:25.709Z,102548.03
2022-11-10T17:12:58.167Z,102542.34
2022-11-10T17:15:27.392Z,102565.88
2022-11-10T17:17:58.830Z,102572.50
2022-11-10T17:20:38.377Z,102566.66
2022-11-10T17:23:08.295Z,102570.78
2022-11-10T17:25:37.897Z,102579.28
2022-11-10T17:28:08.533Z,102583.13
2022-11-10T17:30:41.840Z,102584.97
2022-11-10T17:33:14.186Z,102599.66
2022-11-10T17:35:51.165Z,102581.66
2022-11-10T17:38:28.470Z,102582.25
2022-11-10T17:41:00.623Z,102581.63
2022-11-10T17:43:29.119Z,102585.25
2022-11-10T17:45:57.729Z,102576.94
2022-11-10T17:48:27.195Z,102571.19
2022-11-10T17:51:00.614Z,102576.88
2022-11-10T17:53:30.140Z,102592.53
2022-11-10T17:56:01.153Z,102579.00
2022-11-10T17:58:33.425Z,102577.75
2022-11-10T18:01:14.859Z,102579.72
2022-11-10T18:03:48.087Z,102577.88
2022-11-10T18:06:22.444Z,102582.19
2022-11-10T18:08:52.061Z,102583.50
2022-11-10T18:11:21.093Z,102572.59
2022-11-10T18:13:50.830Z,102574.72
2022-11-10T18:16:19.515Z,102571.22
2022-11-10T18:18:49.960Z,102587.03
2022-11-10T18:21:22.309Z,102588.03
2022-11-10T18:23:53.960Z,102585.97
2022-11-10T18:26:24.411Z,102575.97
2022-11-10T18:28:54.587Z,102578.03
2022-11-10T18:31:24.544Z,102587.16
2022-11-10T18:33:59.309Z,102592.41
2022-11-10T18:36:43.011Z,102591.97
2022-11-10T18:39:11.558Z,102601.69
2022-11-10T18:41:52.973Z,102602.25
2022-11-10T18:44:25.155Z,102587.66
2022-11-10T18:46:58.548Z,102605.13
2022-11-10T18:49:27.321Z,102608.75
2022-11-10T18:52:02.607Z,102601.00
2022-11-10T18:54:31.367Z,102597.50
2022-11-10T18:57:00.543Z,102595.47
2022-11-10T18:59:30.498Z,102599.97
2022-11-10T19:01:59.960Z,102609.75
2022-11-10T19:04:28.570Z,102621.44
2022-11-10T19:06:58.854Z,102608.59
2022-11-10T19:09:37.644Z,102615.13
2022-11-10T19:12:11.617Z,102622.72
2022-11-10T19:14:41.839Z,102621.56
2022-11-10T19:17:26.423Z,102623.22
2022-11-10T19:19:59.795Z,102630.59
2022-11-10T19:22:30.317Z,102631.47
2022-11-10T19:25:09.065Z,102642.19
2022-11-10T19:27:41.490Z,102632.78
2022-11-10T19:30:14.380Z,102622.13
2022-11-10T19:32:47.768Z,102624.31
2022-11-10T19:35:16.593Z,102618.88
2022-11-10T19:37:48.652Z,102620.28
2022-11-10T19:40:25.854Z,102625.59
2022-11-10T19:42:58.762Z,102636.91
2022-11-10T19:45:28.238Z,102638.72
2022-11-10T19:47:59.866Z,102641.06
2022-11-10T19:50:30.026Z,102641.97
2022-11-10T19:53:01.948Z,102645.94
2022-11-10T19:55:36.903Z,102648.75
2022-11-10T19:58:05.798Z,102646.31
2022-11-10T20:00:34.385Z,102649.41
2022-11-10T20:03:03.891Z,102652.75
2022-11-10T20:05:36.026Z,102655.69
2022-11-10T20:08:15.914Z,102654.88
2022-11-10T20:10:47.065Z,102656.69
2022-11-10T20:13:15.684Z,102663.97
2022-11-10T20:15:45.784Z,102668.69
2022-11-10T20:18:15.599Z,102669.03
2022-11-10T20:20:51.218Z,102654.38
2022-11-10T20:23:22.362Z,102654.88
2022-11-10T20:25:51.677Z,102665.16
2022-11-10T20:28:21.200Z,102676.78
2022-11-10T20:30:50.138Z,102669.63
2022-11-10T20:33:19.624Z,102660.16
2022-11-10T20:35:49.483Z,102648.06
2022-11-10T20:38:21.288Z,102653.16
2022-11-10T20:40:52.496Z,102658.34
2022-11-10T20:43:21.569Z,102668.84
2022-11-10T20:45:56.158Z,102668.00
2022-11-10T20:48:29.091Z,102648.03
2022-11-10T20:50:58.316Z,102661.53
2022-11-10T20:53:27.760Z,102670.78
2022-11-10T20:56:06.591Z,102681.91
2022-11-10T20:58:35.731Z,102682.97
2022-11-10T21:01:06.093Z,102680.00
2022-11-10T21:03:35.828Z,102694.38
2022-11-10T21:06:05.728Z,102694.13
2022-11-10T21:08:34.992Z,102707.59
2022-11-10T21:11:08.637Z,102707.84
2022-11-10T21:13:37.415Z,102731.56
2022-11-10T21:16:09.649Z,102748.38
2022-11-10T21:18:39.866Z,102752.31
2022-11-10T21:21:22.931Z,102759.44
2022-11-10T21:23:57.697Z,102747.09
2022-11-10T21:26:28.818Z,102758.16
2022-11-10T21:28:59.702Z,102763.19
2022-11-10T21:31:28.625Z,102765.94
2022-11-10T21:33:58.763Z,102765.38
2022-11-10T21:36:29.785Z,102771.88
2022-11-10T21:38:59.050Z,102769.97
2022-11-10T21:41:29.444Z,102773.09
2022-11-10T21:43:58.675Z,102769.25
2022-11-10T21:46:27.516Z,102753.25
2022-11-10T21:48:57.211Z,102772.16
2022-11-10T21:51:26.165Z,102768.56
2022-11-10T21:53:55.291Z,102760.69
2022-11-10T21:56:24.454Z,102771.03
2022-11-10T21:58:54.784Z,102772.34
2022-11-10T22:01:23.819Z,102786.38
2022-11-10T22:03:53.463Z,102784.00
2022-11-10T22:06:22.891Z,102762.16
2022-11-10T22:08:51.738Z,102770.09
2022-11-10T22:11:40.282Z,102797.22
2022-11-10T22:14:32.307Z,102782.22
2022-11-10T22:17:18.840Z,102787.34
2022-11-10T22:19:47.454Z,102784.59
2022-11-10T22:22:16.582Z,102779.41
2022-11-10T22:24:45.347Z,102774.84
2022-11-10T22:27:14.050Z,102778.25
2022-11-10T22:29:44.793Z,102788.91
2022-11-10T22:32:13.887Z,102785.25
2022-11-10T22:34:42.742Z,102775.91
2022-11-10T22:37:11.637Z,102789.50
2022-11-10T22:39:57.641Z,102778.91
2022-11-10T22:42:43.897Z,102783.16
2022-11-10T22:45:14.382Z,102794.09
2022-11-10T22:48:00.521Z,102781.50
2022-11-10T22:50:29.270Z,102797.13
2022-11-10T22:52:59.227Z,102796.38
2022-11-10T22:55:28.070Z,102790.66
2022-11-10T22:57:56.971Z,102797.00
2022-11-10T23:00:27.249Z,102804.28
2022-11-10T23:02:55.733Z,102810.22
2022-11-10T23:05:24.537Z,102813.38
2022-11-10T23:07:53.268Z,102818.41
2022-11-10T23:10:22.336Z,102819.22
2022-11-10T23:12:50.978Z,102805.81
2022-11-10T23:15:19.466Z,102815.22
2022-11-10T23:17:49.524Z,102811.91
2022-11-10T23:20:18.273Z,102810.69
2022-11-10T23:22:46.946Z,102800.50
2022-11-10T23:25:15.742Z,102795.31
2022-11-10T23:27:44.510Z,102810.66
2022-11-10T23:30:14.073Z,102822.31
2022-11-10T23:32:42.974Z,102800.56
2022-11-10T23:35:21.360Z,102815.91
2022-11-10T23:37:53.279Z,102814.25
2022-11-10T23:40:22.253Z,102815.25
2022-11-10T23:42:51.029Z,102818.72
2022-11-10T23:45:19.721Z,102825.16
2022-11-10T23:47:48.509Z,102819.69
2022-11-10T23:50:19.550Z,102828.47
2022-11-10T23:52:48.505Z,102823.44
2022-11-10T23:55:17.454Z,102824.13
2022-11-10T23:57:47.718Z,102827.94
